sensor_id;sensor_type;location;lat;lon;timestamp;pressure;altitude;pressure_sealevel;temperature;humidity
11643;BME280;5877;50.930;6.918;2023-07-29T08:38:53;100222.28;;;30.46;40.27
11643;BME280;5877;50.930;6.918;2023-07-29T08:44:07;100264.59;;;29.12;42.20
11643;BME280;5877;50.930;6.918;2023-07-29T08:49:04;100268.25;;;28.15;44.78
11643;BME280;5877;50.930;6.918;2023-07-29T08:54:00;100250.03;;;27.42;44.78
11643;BME280;5877;50.930;6.918;2023-07-29T08:58:57;100253.66;;;27.13;45.93
11643;BME280;5877;50.930;6.918;2023-07-29T09:03:53;100177.94;;;27.06;44.63
11643;BME280;5877;50.930;6.918;2023-07-29T09:08:50;100279.75;;;28.24;43.22
11643;BME280;5877;50.930;6.918;2023-07-29T09:13:48;100083.13;;;26.05;45.07
11643;BME280;5877;50.930;6.918;2023-07-29T09:18:43;100095.31;;;25.52;47.44
11643;BME280;5877;50.930;6.918;2023-07-29T09:23:43;100289.91;;;26.74;47.30
11643;BME280;5877;50.930;6.918;2023-07-29T09:28:39;100278.75;;;25.96;49.11
11643;BME280;5877;50.930;6.918;2023-07-29T09:33:34;100186.31;;;25.16;50.52
11643;BME280;5877;50.930;6.918;2023-07-29T09:38:36;100305.69;;;25.79;50.24
11643;BME280;5877;50.930;6.918;2023-07-29T09:43:35;100306.66;;;25.57;50.47
11643;BME280;5877;50.930;6.918;2023-07-29T09:48:34;100140.41;;;25.38;49.28
11643;BME280;5877;50.930;6.918;2023-07-29T09:53:31;100186.91;;;26.57;47.07
11643;BME280;5877;50.930;6.918;2023-07-29T09:58:26;100293.06;;;27.84;44.69
11643;BME280;5877;50.930;6.918;2023-07-29T10:03:25;100148.81;;;27.33;43.71
11643;BME280;5877;50.930;6.918;2023-07-29T10:08:20;100164.38;;;27.72;43.64
11643;BME280;5877;50.930;6.918;2023-07-29T10:24:24;100274.41;;;27.46;44.02
11643;BME280;5877;50.930;6.918;2023-07-29T10:30:31;100304.00;;;26.71;46.23
11643;BME280;5877;50.930;6.918;2023-07-29T10:36:17;100303.09;;;26.00;49.05
11643;BME280;5877;50.930;6.918;2023-07-29T10:41:13;100321.06;;;25.52;53.89
11643;BME280;5877;50.930;6.918;2023-07-29T10:46:27;100314.44;;;25.41;54.78
11643;BME280;5877;50.930;6.918;2023-07-29T10:51:35;100311.44;;;25.08;55.76
11643;BME280;5877;50.930;6.918;2023-07-29T10:56:35;100306.03;;;25.69;53.80
11643;BME280;5877;50.930;6.918;2023-07-29T11:01:29;100305.69;;;26.17;53.03
11643;BME280;5877;50.930;6.918;2023-07-29T11:06:22;100295.63;;;26.43;53.16
11643;BME280;5877;50.930;6.918;2023-07-29T11:11:14;100243.09;;;25.70;52.38
11643;BME280;5877;50.930;6.918;2023-07-29T11:16:06;100237.09;;;25.73;51.93
11643;BME280;5877;50.930;6.918;2023-07-29T11:21:03;100263.19;;;25.55;52.41
11643;BME280;5877;50.930;6.918;2023-07-29T11:25:56;100283.28;;;26.04;52.11
11643;BME280;5877;50.930;6.918;2023-07-29T11:30:49;100276.75;;;26.73;49.73
11643;BME280;5877;50.930;6.918;2023-07-29T11:35:43;100243.97;;;26.50;49.52
11643;BME280;5877;50.930;6.918;2023-07-29T11:40:38;100276.31;;;26.92;48.43
11643;BME280;5877;50.930;6.918;2023-07-29T11:45:30;100258.34;;;26.25;49.00
11643;BME280;5877;50.930;6.918;2023-07-29T11:50:43;100279.81;;;27.13;47.60
11643;BME280;5877;50.930;6.918;2023-07-29T11:55:39;100277.50;;;27.03;47.79
11643;BME280;5877;50.930;6.918;2023-07-29T12:00:33;100182.06;;;26.50;47.52
11643;BME280;5877;50.930;6.918;2023-07-29T12:05:37;100230.34;;;26.97;47.18
11643;BME280;5877;50.930;6.918;2023-07-29T12:10:34;100264.75;;;28.15;45.61
11643;BME280;5877;50.930;6.918;2023-07-29T12:15:38;100203.22;;;27.59;45.89
11643;BME280;5877;50.930;6.918;2023-07-29T12:20:37;100067.78;;;26.93;45.18
11643;BME280;5877;50.930;6.918;2023-07-29T12:25:31;100210.56;;;27.83;43.85
11643;BME280;5877;50.930;6.918;2023-07-29T12:30:25;100204.78;;;27.48;44.13
11643;BME280;5877;50.930;6.918;2023-07-29T12:35:23;100015.34;;;26.12;43.44
11643;BME280;5877;50.930;6.918;2023-07-29T12:40:24;99869.94;;;25.42;43.28
11643;BME280;5877;50.930;6.918;2023-07-29T12:45:19;100104.13;;;26.87;43.12
11643;BME280;5877;50.930;6.918;2023-07-29T12:50:15;100185.72;;;26.66;44.96
11643;BME280;5877;50.930;6.918;2023-07-29T12:55:09;100181.91;;;27.21;44.52
11643;BME280;5877;50.930;6.918;2023-07-29T13:00:12;100223.16;;;27.67;44.55
11643;BME280;5877;50.930;6.918;2023-07-29T13:05:24;99983.09;;;26.24;44.48
11643;BME280;5877;50.930;6.918;2023-07-29T13:10:24;100234.19;;;28.23;43.60
11643;BME280;5877;50.930;6.918;2023-07-29T13:15:24;100221.94;;;28.01;43.87
11643;BME280;5877;50.930;6.918;2023-07-29T13:20:16;100214.47;;;27.61;44.36
11643;BME280;5877;50.930;6.918;2023-07-29T13:25:08;100240.91;;;27.02;46.06
11643;BME280;5877;50.930;6.918;2023-07-29T13:30:02;100245.28;;;26.44;48.16
11643;BME280;5877;50.930;6.918;2023-07-29T13:35:03;100239.97;;;25.42;53.88
11643;BME280;5877;50.930;6.918;2023-07-29T13:39:57;100221.53;;;25.23;55.15
11643;BME280;5877;50.930;6.918;2023-07-29T13:44:49;100226.59;;;24.81;59.17
11643;BME280;5877;50.930;6.918;2023-07-29T13:49:41;100263.94;;;24.35;61.40
11643;BME280;5877;50.930;6.918;2023-07-29T13:54:34;100245.63;;;23.97;64.29
11643;BME280;5877;50.930;6.918;2023-07-29T13:59:26;100244.09;;;24.05;66.60
11643;BME280;5877;50.930;6.918;2023-07-29T14:04:18;100243.13;;;24.49;63.86
11643;BME280;5877;50.930;6.918;2023-07-29T14:09:10;100272.38;;;25.45;62.45
11643;BME280;5877;50.930;6.918;2023-07-29T14:14:03;100266.34;;;25.66;60.76
11643;BME280;5877;50.930;6.918;2023-07-29T14:18:55;100240.56;;;26.03;60.33
11643;BME280;5877;50.930;6.918;2023-07-29T14:23:48;100236.84;;;25.95;61.03
11643;BME280;5877;50.930;6.918;2023-07-29T14:28:40;100175.31;;;26.14;59.69
11643;BME280;5877;50.930;6.918;2023-07-29T14:33:33;100165.72;;;25.29;60.67
11643;BME280;5877;50.930;6.918;2023-07-29T14:38:26;100239.66;;;26.28;57.98
11643;BME280;5877;50.930;6.918;2023-07-29T14:43:19;100243.66;;;26.51;57.06
11643;BME280;5877;50.930;6.918;2023-07-29T14:48:11;100249.63;;;26.57;56.15
11643;BME280;5877;50.930;6.918;2023-07-29T14:53:04;100251.28;;;26.70;54.78
11643;BME280;5877;50.930;6.918;2023-07-29T14:57:58;100215.34;;;26.87;54.52
11643;BME280;5877;50.930;6.918;2023-07-29T15:02:53;100238.56;;;27.33;52.83
11643;BME280;5877;50.930;6.918;2023-07-29T15:07:46;100266.72;;;26.82;52.29
11643;BME280;5877;50.930;6.918;2023-07-29T15:12:39;100198.47;;;26.36;52.65
11643;BME280;5877;50.930;6.918;2023-07-29T15:17:31;100157.22;;;26.65;52.23
11643;BME280;5877;50.930;6.918;2023-07-29T15:22:24;100245.91;;;27.57;53.18
11643;BME280;5877;50.930;6.918;2023-07-29T15:27:16;100198.53;;;28.05;49.72
11643;BME280;5877;50.930;6.918;2023-07-29T15:32:08;100228.44;;;28.12;48.95
11643;BME280;5877;50.930;6.918;2023-07-29T15:37:02;100209.63;;;27.55;49.32
11643;BME280;5877;50.930;6.918;2023-07-29T15:41:56;100238.13;;;27.10;51.04
11643;BME280;5877;50.930;6.918;2023-07-29T15:46:51;100236.63;;;26.59;52.06
11643;BME280;5877;50.930;6.918;2023-07-29T15:51:49;100213.75;;;26.15;53.25
11643;BME280;5877;50.930;6.918;2023-07-29T15:56:42;100217.25;;;26.15;53.50
11643;BME280;5877;50.930;6.918;2023-07-29T16:01:34;100236.28;;;26.40;53.79
11643;BME280;5877;50.930;6.918;2023-07-29T16:06:26;100241.63;;;26.10;54.21
11643;BME280;5877;50.930;6.918;2023-07-29T16:11:19;100268.56;;;25.55;56.58
11643;BME280;5877;50.930;6.918;2023-07-29T16:16:15;100242.84;;;24.93;59.38
11643;BME280;5877;50.930;6.918;2023-07-29T16:21:07;100225.63;;;24.77;60.78
11643;BME280;5877;50.930;6.918;2023-07-29T16:26:00;100250.47;;;25.17;62.36
11643;BME280;5877;50.930;6.918;2023-07-29T16:30:52;100232.59;;;25.85;58.99
11643;BME280;5877;50.930;6.918;2023-07-29T16:35:53;100245.16;;;26.61;55.55
11643;BME280;5877;50.930;6.918;2023-07-29T16:40:46;100203.25;;;26.51;54.05
11643;BME280;5877;50.930;6.918;2023-07-29T16:46:02;100208.84;;;26.67;53.55
11643;BME280;5877;50.930;6.918;2023-07-29T16:50:54;100132.28;;;25.55;53.26
11643;BME280;5877;50.930;6.918;2023-07-29T16:55:46;100223.19;;;25.53;56.04
11643;BME280;5877;50.930;6.918;2023-07-29T17:00:39;100221.38;;;25.11;57.87
11643;BME280;5877;50.930;6.918;2023-07-29T17:05:33;100172.91;;;24.64;58.19
11643;BME280;5877;50.930;6.918;2023-07-29T17:10:25;100188.84;;;24.78;59.53
11643;BME280;5877;50.930;6.918;2023-07-29T17:34:05;100206.13;;;24.20;67.16
11643;BME280;5877;50.930;6.918;2023-07-29T17:38:58;100178.44;;;23.23;68.15
11643;BME280;5877;50.930;6.918;2023-07-29T17:43:51;100191.09;;;23.09;69.79
11643;BME280;5877;50.930;6.918;2023-07-29T17:48:46;100243.16;;;23.47;69.47
11643;BME280;5877;50.930;6.918;2023-07-29T17:53:39;100116.50;;;22.49;70.12
11643;BME280;5877;50.930;6.918;2023-07-29T17:58:36;100231.38;;;22.81;69.75
11643;BME280;5877;50.930;6.918;2023-07-29T18:03:30;100187.63;;;22.50;73.03
11643;BME280;5877;50.930;6.918;2023-07-29T18:08:23;100143.16;;;22.04;72.97
11643;BME280;5877;50.930;6.918;2023-07-29T18:13:16;99926.34;;;20.92;71.59
11643;BME280;5877;50.930;6.918;2023-07-29T18:18:10;100284.84;;;23.31;71.56
11643;BME280;5877;50.930;6.918;2023-07-29T18:23:02;100120.91;;;22.31;75.45
11643;BME280;5877;50.930;6.918;2023-07-29T18:28:01;100256.09;;;23.23;71.38
11643;BME280;5877;50.930;6.918;2023-07-29T18:32:53;100277.03;;;23.21;73.98
11643;BME280;5877;50.930;6.918;2023-07-29T18:37:47;100235.94;;;22.67;76.87
11643;BME280;5877;50.930;6.918;2023-07-29T18:42:45;100278.56;;;22.36;80.65
11643;BME280;5877;50.930;6.918;2023-07-29T18:47:38;100261.19;;;21.79;83.13
11643;BME280;5877;50.930;6.918;2023-07-29T18:52:31;100250.75;;;21.63;86.21
11643;BME280;5877;50.930;6.918;2023-07-29T18:57:24;100289.97;;;21.82;86.63
11643;BME280;5877;50.930;6.918;2023-07-29T19:02:21;100221.03;;;21.37;85.89
11643;BME280;5877;50.930;6.918;2023-07-29T19:07:34;100283.88;;;21.30;89.54
11643;BME280;5877;50.930;6.918;2023-07-29T19:12:48;100283.88;;;20.92;95.54
11643;BME280;5877;50.930;6.918;2023-07-29T19:17:45;100289.22;;;20.92;96.94
11643;BME280;5877;50.930;6.918;2023-07-29T19:22:42;100257.75;;;20.52;100.00
11643;BME280;5877;50.930;6.918;2023-07-29T19:27:35;100211.72;;;19.98;100.00
11643;BME280;5877;50.930;6.918;2023-07-29T19:32:28;100298.28;;;20.54;100.00
11643;BME280;5877;50.930;6.918;2023-07-29T19:37:24;100261.22;;;20.28;100.00
11643;BME280;5877;50.930;6.918;2023-07-29T19:42:18;100254.00;;;20.05;100.00
11643;BME280;5877;50.930;6.918;2023-07-29T19:47:12;100172.97;;;19.29;100.00
11643;BME280;5877;50.930;6.918;2023-07-29T19:52:06;100246.47;;;19.59;100.00
11643;BME280;5877;50.930;6.918;2023-07-29T19:56:58;100313.16;;;20.07;100.00
11643;BME280;5877;50.930;6.918;2023-07-29T20:01:51;100259.50;;;19.61;100.00
11643;BME280;5877;50.930;6.918;2023-07-29T20:06:47;100191.59;;;19.29;100.00
11643;BME280;5877;50.930;6.918;2023-07-29T20:11:42;100297.06;;;19.88;100.00
11643;BME280;5877;50.930;6.918;2023-07-29T20:16:34;100305.28;;;19.92;100.00
11643;BME280;5877;50.930;6.918;2023-07-29T20:21:27;100301.25;;;20.23;100.00
11643;BME280;5877;50.930;6.918;2023-07-29T20:26:21;100296.31;;;20.12;100.00
11643;BME280;5877;50.930;6.918;2023-07-29T20:31:14;100284.06;;;20.10;100.00
11643;BME280;5877;50.930;6.918;2023-07-29T20:36:07;100133.84;;;19.01;100.00
11643;BME280;5877;50.930;6.918;2023-07-29T20:41:02;100291.75;;;19.88;100.00
11643;BME280;5877;50.930;6.918;2023-07-29T20:45:55;100279.88;;;19.75;100.00
11643;BME280;5877;50.930;6.918;2023-07-29T20:50:48;100309.50;;;19.98;100.00
11643;BME280;5877;50.930;6.918;2023-07-29T20:55:41;100191.47;;;19.44;100.00
11643;BME280;5877;50.930;6.918;2023-07-29T21:00:39;100236.09;;;19.87;100.00
11643;BME280;5877;50.930;6.918;2023-07-29T21:05:33;100302.56;;;20.26;100.00
11643;BME280;5877;50.930;6.918;2023-07-29T21:10:30;100219.38;;;19.52;100.00
11643;BME280;5877;50.930;6.918;2023-07-29T21:15:24;100301.00;;;19.96;100.00
11643;BME280;5877;50.930;6.918;2023-07-29T21:20:18;100288.50;;;19.62;100.00
11643;BME280;5877;50.930;6.918;2023-07-29T21:25:11;100221.59;;;19.06;100.00
11643;BME280;5877;50.930;6.918;2023-07-29T21:30:04;100321.84;;;19.55;100.00
11643;BME280;5877;50.930;6.918;2023-07-29T21:34:57;100274.19;;;19.14;100.00
11643;BME280;5877;50.930;6.918;2023-07-29T21:39:51;100305.22;;;19.29;100.00
11643;BME280;5877;50.930;6.918;2023-07-29T21:44:44;100334.78;;;19.27;100.00
11643;BME280;5877;50.930;6.918;2023-07-29T21:49:38;100185.06;;;18.23;100.00
11643;BME280;5877;50.930;6.918;2023-07-29T21:54:31;100346.88;;;19.09;100.00
11643;BME280;5877;50.930;6.918;2023-07-29T21:59:24;100352.97;;;19.10;100.00
11643;BME280;5877;50.930;6.918;2023-07-29T22:04:20;100361.50;;;19.07;100.00
11643;BME280;5877;50.930;6.918;2023-07-29T22:09:12;100231.41;;;18.02;100.00
11643;BME280;5877;50.930;6.918;2023-07-29T22:14:06;100382.63;;;18.83;100.00
11643;BME280;5877;50.930;6.918;2023-07-29T22:18:58;100341.75;;;18.54;100.00
11643;BME280;5877;50.930;6.918;2023-07-29T22:23:51;100349.97;;;18.52;100.00
11643;BME280;5877;50.930;6.918;2023-07-29T22:28:51;100400.75;;;18.66;100.00
11643;BME280;5877;50.930;6.918;2023-07-29T22:33:45;100411.13;;;18.57;100.00
11643;BME280;5877;50.930;6.918;2023-07-29T22:38:39;100410.84;;;18.59;100.00
11643;BME280;5877;50.930;6.918;2023-07-29T22:43:31;100343.72;;;18.02;100.00
11643;BME280;5877;50.930;6.918;2023-07-29T22:48:26;100386.97;;;18.33;100.00
11643;BME280;5877;50.930;6.918;2023-07-29T22:53:22;100380.59;;;18.24;100.00
11643;BME280;5877;50.930;6.918;2023-07-29T22:58:20;100359.41;;;17.94;100.00
11643;BME280;5877;50.930;6.918;2023-07-29T23:03:15;100394.19;;;18.02;100.00
11643;BME280;5877;50.930;6.918;2023-07-29T23:08:08;100410.94;;;18.13;100.00
11643;BME280;5877;50.930;6.918;2023-07-29T23:13:00;100383.31;;;18.04;100.00
11643;BME280;5877;50.930;6.918;2023-07-29T23:17:53;100365.78;;;17.88;100.00
11643;BME280;5877;50.930;6.918;2023-07-29T23:22:45;100434.56;;;18.20;100.00
11643;BME280;5877;50.930;6.918;2023-07-29T23:27:38;100326.41;;;17.29;100.00
11643;BME280;5877;50.930;6.918;2023-07-29T23:32:31;100433.25;;;18.02;100.00
11643;BME280;5877;50.930;6.918;2023-07-29T23:37:26;100435.09;;;18.01;100.00
11643;BME280;5877;50.930;6.918;2023-07-29T23:42:18;100273.53;;;16.86;100.00
11643;BME280;5877;50.930;6.918;2023-07-29T23:47:11;100433.75;;;17.83;100.00
11643;BME280;5877;50.930;6.918;2023-07-29T23:52:03;100427.91;;;17.81;100.00
11643;BME280;5877;50.930;6.918;2023-07-29T23:56:57;100257.34;;;16.73;100.00
